sensor_id;sensor_type;location;lat;lon;timestamp;pressure;altitude;pressure_sealevel;temperature;humidity
70841;BME280;58465;51.534;9.934;2022-07-06T00:01:42;100548.47;;;17.66;52.38
70841;BME280;58465;51.534;9.934;2022-07-06T00:04:07;100542.50;;;17.58;52.38
70841;BME280;58465;51.534;9.934;2022-07-06T00:06:33;100555.19;;;17.56;52.85
70841;BME280;58465;51.534;9.934;2022-07-06T00:08:58;100564.50;;;17.49;52.98
70841;BME280;58465;51.534;9.934;2022-07-06T00:11:24;100563.00;;;17.42;53.40
70841;BME280;58465;51.534;9.934;2022-07-06T00:13:50;100566.84;;;17.36;53.41
70841;BME280;58465;51.534;9.934;2022-07-06T00:16:15;100564.47;;;17.29;54.28
70841;BME280;58465;51.534;9.934;2022-07-06T00:18:41;100562.88;;;17.23;54.17
70841;BME280;58465;51.534;9.934;2022-07-06T00:21:07;100567.56;;;17.20;54.20
70841;BME280;58465;51.534;9.934;2022-07-06T00:23:33;100571.31;;;17.16;55.00
70841;BME280;58465;51.534;9.934;2022-07-06T00:25:59;100567.78;;;17.14;54.87
70841;BME280;58465;51.534;9.934;2022-07-06T00:28:24;100566.09;;;17.11;54.84
70841;BME280;58465;51.534;9.934;2022-07-06T00:30:50;100557.25;;;17.08;54.86
70841;BME280;58465;51.534;9.934;2022-07-06T00:33:15;100560.13;;;17.03;55.04
70841;BME280;58465;51.534;9.934;2022-07-06T00:35:40;100550.22;;;17.03;55.51
70841;BME280;58465;51.534;9.934;2022-07-06T00:38:05;100550.16;;;17.05;55.13
70841;BME280;58465;51.534;9.934;2022-07-06T00:40:31;100552.03;;;17.03;55.25
70841;BME280;58465;51.534;9.934;2022-07-06T00:42:56;100537.75;;;17.01;55.70
70841;BME280;58465;51.534;9.934;2022-07-06T00:45:22;100541.44;;;16.98;55.66
70841;BME280;58465;51.534;9.934;2022-07-06T00:47:47;100543.47;;;16.92;55.84
70841;BME280;58465;51.534;9.934;2022-07-06T00:50:15;100549.84;;;16.91;56.19
70841;BME280;58465;51.534;9.934;2022-07-06T00:55:30;100552.41;;;16.94;55.85
70841;BME280;58465;51.534;9.934;2022-07-06T00:57:56;100551.47;;;16.95;56.01
70841;BME280;58465;51.534;9.934;2022-07-06T01:00:24;100558.94;;;16.88;56.04
70841;BME280;58465;51.534;9.934;2022-07-06T01:02:50;100563.63;;;16.83;56.51
70841;BME280;58465;51.534;9.934;2022-07-06T01:05:16;100564.72;;;16.79;56.68
70841;BME280;58465;51.534;9.934;2022-07-06T01:07:46;100566.63;;;16.76;56.94
70841;BME280;58465;51.534;9.934;2022-07-06T01:10:14;100559.72;;;16.68;57.18
70841;BME280;58465;51.534;9.934;2022-07-06T01:12:41;100554.59;;;16.61;57.06
70841;BME280;58465;51.534;9.934;2022-07-06T01:15:12;100552.03;;;16.58;57.53
70841;BME280;58465;51.534;9.934;2022-07-06T01:17:38;100553.91;;;16.56;57.47
70841;BME280;58465;51.534;9.934;2022-07-06T01:22:36;100553.31;;;16.48;57.85
70841;BME280;58465;51.534;9.934;2022-07-06T01:25:02;100545.34;;;16.45;58.02
70841;BME280;58465;51.534;9.934;2022-07-06T01:27:28;100541.22;;;16.34;58.14
70841;BME280;58465;51.534;9.934;2022-07-06T01:29:53;100547.50;;;16.35;58.31
70841;BME280;58465;51.534;9.934;2022-07-06T01:32:18;100556.72;;;16.29;58.33
70841;BME280;58465;51.534;9.934;2022-07-06T01:34:44;100551.69;;;16.20;58.43
70841;BME280;58465;51.534;9.934;2022-07-06T01:37:09;100554.31;;;16.22;58.98
70841;BME280;58465;51.534;9.934;2022-07-06T01:39:34;100549.97;;;16.18;58.83
70841;BME280;58465;51.534;9.934;2022-07-06T01:42:00;100550.91;;;16.17;58.73
70841;BME280;58465;51.534;9.934;2022-07-06T01:44:25;100552.03;;;16.11;59.15
70841;BME280;58465;51.534;9.934;2022-07-06T01:46:50;100557.69;;;16.04;59.22
70841;BME280;58465;51.534;9.934;2022-07-06T01:49:16;100555.09;;;16.01;59.28
70841;BME280;58465;51.534;9.934;2022-07-06T01:51:41;100558.44;;;16.07;58.99
70841;BME280;58465;51.534;9.934;2022-07-06T01:54:06;100561.72;;;16.15;58.93
70841;BME280;58465;51.534;9.934;2022-07-06T01:56:32;100552.72;;;16.16;58.75
70841;BME280;58465;51.534;9.934;2022-07-06T01:58:57;100546.38;;;15.94;59.34
70841;BME280;58465;51.534;9.934;2022-07-06T02:01:22;100543.84;;;15.89;59.55
70841;BME280;58465;51.534;9.934;2022-07-06T02:03:48;100538.41;;;15.91;59.46
70841;BME280;58465;51.534;9.934;2022-07-06T02:06:14;100556.97;;;15.99;59.27
70841;BME280;58465;51.534;9.934;2022-07-06T02:08:40;100556.91;;;16.00;59.24
70841;BME280;58465;51.534;9.934;2022-07-06T02:11:07;100558.69;;;16.01;58.98
70841;BME280;58465;51.534;9.934;2022-07-06T02:13:33;100548.16;;;15.95;58.84
70841;BME280;58465;51.534;9.934;2022-07-06T02:15:58;100549.88;;;15.96;59.21
70841;BME280;58465;51.534;9.934;2022-07-06T02:18:24;100568.59;;;16.01;59.07
70841;BME280;58465;51.534;9.934;2022-07-06T02:20:49;100565.59;;;16.08;58.86
70841;BME280;58465;51.534;9.934;2022-07-06T02:23:14;100566.38;;;16.12;58.58
70841;BME280;58465;51.534;9.934;2022-07-06T02:25:40;100564.72;;;16.08;58.79
70841;BME280;58465;51.534;9.934;2022-07-06T02:28:05;100567.47;;;16.06;58.90
70841;BME280;58465;51.534;9.934;2022-07-06T02:30:30;100568.81;;;15.94;59.16
70841;BME280;58465;51.534;9.934;2022-07-06T02:32:56;100574.13;;;15.96;59.32
70841;BME280;58465;51.534;9.934;2022-07-06T02:35:21;100579.75;;;15.90;59.39
70841;BME280;58465;51.534;9.934;2022-07-06T02:37:46;100559.22;;;15.86;59.40
70841;BME280;58465;51.534;9.934;2022-07-06T02:40:12;100571.59;;;15.91;59.28
70841;BME280;58465;51.534;9.934;2022-07-06T02:42:37;100563.56;;;15.90;59.03
70841;BME280;58465;51.534;9.934;2022-07-06T02:45:03;100569.94;;;15.87;59.50
70841;BME280;58465;51.534;9.934;2022-07-06T02:47:28;100569.16;;;15.85;59.67
70841;BME280;58465;51.534;9.934;2022-07-06T02:49:54;100565.44;;;15.88;59.65
70841;BME280;58465;51.534;9.934;2022-07-06T02:52:19;100567.19;;;15.89;59.54
70841;BME280;58465;51.534;9.934;2022-07-06T02:54:45;100566.59;;;15.81;59.65
70841;BME280;58465;51.534;9.934;2022-07-06T02:57:11;100573.09;;;15.75;59.91
70841;BME280;58465;51.534;9.934;2022-07-06T02:59:36;100572.31;;;15.72;59.89
70841;BME280;58465;51.534;9.934;2022-07-06T03:02:03;100573.97;;;15.76;59.64
70841;BME280;58465;51.534;9.934;2022-07-06T03:04:29;100579.22;;;15.79;59.60
70841;BME280;58465;51.534;9.934;2022-07-06T03:06:54;100578.25;;;15.81;59.85
70841;BME280;58465;51.534;9.934;2022-07-06T03:09:19;100573.84;;;15.79;59.75
70841;BME280;58465;51.534;9.934;2022-07-06T03:11:45;100573.16;;;15.74;59.80
70841;BME280;58465;51.534;9.934;2022-07-06T03:14:10;100569.00;;;15.64;60.06
70841;BME280;58465;51.534;9.934;2022-07-06T03:16:35;100568.19;;;15.62;60.48
70841;BME280;58465;51.534;9.934;2022-07-06T03:19:01;100574.13;;;15.71;60.31
70841;BME280;58465;51.534;9.934;2022-07-06T03:21:26;100578.34;;;15.78;59.73
70841;BME280;58465;51.534;9.934;2022-07-06T03:23:52;100579.22;;;15.79;60.03
70841;BME280;58465;51.534;9.934;2022-07-06T03:26:17;100588.16;;;15.81;59.84
70841;BME280;58465;51.534;9.934;2022-07-06T03:28:45;100589.63;;;15.89;59.60
70841;BME280;58465;51.534;9.934;2022-07-06T03:31:10;100596.72;;;15.92;59.51
70841;BME280;58465;51.534;9.934;2022-07-06T03:33:36;100602.03;;;15.95;59.17
70841;BME280;58465;51.534;9.934;2022-07-06T03:36:01;100603.41;;;16.05;59.14
70841;BME280;58465;51.534;9.934;2022-07-06T03:38:26;100599.78;;;16.06;59.12
70841;BME280;58465;51.534;9.934;2022-07-06T03:40:52;100603.56;;;16.02;59.03
70841;BME280;58465;51.534;9.934;2022-07-06T03:43:17;100598.25;;;15.99;58.99
70841;BME280;58465;51.534;9.934;2022-07-06T03:45:43;100598.13;;;16.04;58.77
70841;BME280;58465;51.534;9.934;2022-07-06T03:48:08;100597.84;;;16.11;58.95
70841;BME280;58465;51.534;9.934;2022-07-06T03:50:33;100596.03;;;16.12;58.67
70841;BME280;58465;51.534;9.934;2022-07-06T03:52:59;100602.06;;;16.18;58.46
70841;BME280;58465;51.534;9.934;2022-07-06T03:55:24;100601.81;;;16.24;58.45
70841;BME280;58465;51.534;9.934;2022-07-06T03:57:49;100598.28;;;16.24;58.69
70841;BME280;58465;51.534;9.934;2022-07-06T04:00:15;100603.66;;;16.24;58.59
70841;BME280;58465;51.534;9.934;2022-07-06T04:02:41;100605.38;;;16.25;58.65
70841;BME280;58465;51.534;9.934;2022-07-06T04:05:06;100598.38;;;16.21;58.32
70841;BME280;58465;51.534;9.934;2022-07-06T04:07:32;100610.56;;;16.31;58.33
70841;BME280;58465;51.534;9.934;2022-07-06T04:09:57;100610.25;;;16.40;58.05
70841;BME280;58465;51.534;9.934;2022-07-06T04:12:22;100603.72;;;16.46;57.79
70841;BME280;58465;51.534;9.934;2022-07-06T04:14:48;100612.75;;;16.45;57.89
70841;BME280;58465;51.534;9.934;2022-07-06T04:17:13;100613.09;;;16.36;57.91
70841;BME280;58465;51.534;9.934;2022-07-06T04:19:57;100615.38;;;16.23;58.30
70841;BME280;58465;51.534;9.934;2022-07-06T04:22:22;100614.66;;;16.18;58.33
70841;BME280;58465;51.534;9.934;2022-07-06T04:24:47;100612.00;;;16.16;58.59
70841;BME280;58465;51.534;9.934;2022-07-06T04:27:13;100608.50;;;16.14;58.66
70841;BME280;58465;51.534;9.934;2022-07-06T04:29:38;100615.53;;;16.18;58.50
70841;BME280;58465;51.534;9.934;2022-07-06T04:32:03;100617.94;;;16.26;58.30
70841;BME280;58465;51.534;9.934;2022-07-06T04:34:29;100618.75;;;16.28;58.24
70841;BME280;58465;51.534;9.934;2022-07-06T04:36:54;100631.97;;;16.36;58.19
70841;BME280;58465;51.534;9.934;2022-07-06T04:39:19;100627.06;;;16.47;57.56
70841;BME280;58465;51.534;9.934;2022-07-06T04:41:45;100629.41;;;16.56;57.24
70841;BME280;58465;51.534;9.934;2022-07-06T04:44:10;100622.97;;;16.60;57.38
70841;BME280;58465;51.534;9.934;2022-07-06T04:46:35;100614.59;;;16.67;57.10
70841;BME280;58465;51.534;9.934;2022-07-06T04:49:01;100606.56;;;16.66;57.18
70841;BME280;58465;51.534;9.934;2022-07-06T04:51:26;100613.47;;;16.73;56.77
70841;BME280;58465;51.534;9.934;2022-07-06T04:53:51;100619.41;;;16.83;56.31
70841;BME280;58465;51.534;9.934;2022-07-06T04:56:17;100622.75;;;16.89;56.39
70841;BME280;58465;51.534;9.934;2022-07-06T04:58:42;100618.00;;;16.96;55.69
70841;BME280;58465;51.534;9.934;2022-07-06T05:01:07;100623.97;;;17.04;55.80
70841;BME280;58465;51.534;9.934;2022-07-06T05:03:33;100624.09;;;17.01;55.49
70841;BME280;58465;51.534;9.934;2022-07-06T05:06:04;100631.88;;;17.09;55.21
70841;BME280;58465;51.534;9.934;2022-07-06T05:08:30;100629.88;;;17.14;55.34
70841;BME280;58465;51.534;9.934;2022-07-06T05:10:55;100636.44;;;17.30;54.74
70841;BME280;58465;51.534;9.934;2022-07-06T05:13:20;100633.03;;;17.47;54.23
70841;BME280;58465;51.534;9.934;2022-07-06T05:15:46;100628.84;;;17.60;53.99
70841;BME280;58465;51.534;9.934;2022-07-06T05:18:11;100623.19;;;17.67;53.83
70841;BME280;58465;51.534;9.934;2022-07-06T05:20:36;100634.13;;;17.85;53.03
70841;BME280;58465;51.534;9.934;2022-07-06T05:23:02;100633.03;;;17.89;52.80
70841;BME280;58465;51.534;9.934;2022-07-06T05:25:27;100640.34;;;17.66;52.82
70841;BME280;58465;51.534;9.934;2022-07-06T05:27:53;100635.16;;;17.38;53.29
70841;BME280;58465;51.534;9.934;2022-07-06T05:30:19;100640.63;;;17.37;53.58
70841;BME280;58465;51.534;9.934;2022-07-06T05:32:45;100635.66;;;17.26;53.48
70841;BME280;58465;51.534;9.934;2022-07-06T05:35:10;100636.91;;;17.18;53.47
70841;BME280;58465;51.534;9.934;2022-07-06T05:37:35;100644.81;;;17.22;53.62
70841;BME280;58465;51.534;9.934;2022-07-06T05:40:01;100628.97;;;17.13;53.46
70841;BME280;58465;51.534;9.934;2022-07-06T05:42:26;100637.75;;;17.20;53.14
70841;BME280;58465;51.534;9.934;2022-07-06T05:44:55;100649.09;;;17.28;53.12
70841;BME280;58465;51.534;9.934;2022-07-06T05:47:21;100640.63;;;17.37;52.92
70841;BME280;58465;51.534;9.934;2022-07-06T05:50:06;100646.75;;;17.40;53.24
70841;BME280;58465;51.534;9.934;2022-07-06T05:52:55;100654.34;;;17.31;53.20
70841;BME280;58465;51.534;9.934;2022-07-06T05:55:20;100647.59;;;17.42;53.19
70841;BME280;58465;51.534;9.934;2022-07-06T05:57:46;100643.31;;;17.37;53.12
70841;BME280;58465;51.534;9.934;2022-07-06T06:00:11;100656.88;;;17.35;53.23
70841;BME280;58465;51.534;9.934;2022-07-06T06:02:41;100645.06;;;17.16;53.57
70841;BME280;58465;51.534;9.934;2022-07-06T06:05:07;100651.38;;;17.38;52.86
70841;BME280;58465;51.534;9.934;2022-07-06T06:07:34;100645.75;;;17.21;53.32
70841;BME280;58465;51.534;9.934;2022-07-06T06:10:02;100659.03;;;17.27;53.13
70841;BME280;58465;51.534;9.934;2022-07-06T06:12:27;100653.78;;;17.23;53.49
70841;BME280;58465;51.534;9.934;2022-07-06T06:14:53;100652.53;;;17.10;53.63
70841;BME280;58465;51.534;9.934;2022-07-06T06:17:18;100649.03;;;17.29;53.07
70841;BME280;58465;51.534;9.934;2022-07-06T06:19:44;100666.81;;;17.35;53.19
70841;BME280;58465;51.534;9.934;2022-07-06T06:22:09;100648.22;;;17.27;53.22
70841;BME280;58465;51.534;9.934;2022-07-06T06:24:34;100659.53;;;17.37;53.28
70841;BME280;58465;51.534;9.934;2022-07-06T06:27:00;100651.00;;;17.48;52.54
70841;BME280;58465;51.534;9.934;2022-07-06T06:29:25;100665.19;;;17.74;52.12
70841;BME280;58465;51.534;9.934;2022-07-06T06:31:50;100667.63;;;17.80;52.09
70841;BME280;58465;51.534;9.934;2022-07-06T06:34:16;100667.72;;;17.99;51.88
70841;BME280;58465;51.534;9.934;2022-07-06T06:36:41;100671.59;;;18.14;51.75
70841;BME280;58465;51.534;9.934;2022-07-06T06:39:06;100664.28;;;18.36;50.86
70841;BME280;58465;51.534;9.934;2022-07-06T06:41:32;100663.75;;;18.69;49.79
70841;BME280;58465;51.534;9.934;2022-07-06T06:43:57;100675.41;;;19.08;48.72
70841;BME280;58465;51.534;9.934;2022-07-06T06:46:22;100673.94;;;19.01;48.45
70841;BME280;58465;51.534;9.934;2022-07-06T06:48:48;100681.31;;;18.79;48.76
70841;BME280;58465;51.534;9.934;2022-07-06T06:51:13;100684.56;;;18.67;49.05
70841;BME280;58465;51.534;9.934;2022-07-06T06:53:38;100682.94;;;18.42;49.31
70841;BME280;58465;51.534;9.934;2022-07-06T06:56:04;100684.13;;;18.16;50.29
70841;BME280;58465;51.534;9.934;2022-07-06T06:58:29;100685.03;;;18.36;49.70
70841;BME280;58465;51.534;9.934;2022-07-06T07:00:55;100682.94;;;18.83;48.63
70841;BME280;58465;51.534;9.934;2022-07-06T07:03:20;100683.59;;;19.25;47.68
70841;BME280;58465;51.534;9.934;2022-07-06T07:05:46;100681.50;;;19.51;47.02
70841;BME280;58465;51.534;9.934;2022-07-06T07:08:13;100681.78;;;19.81;46.24
70841;BME280;58465;51.534;9.934;2022-07-06T07:10:38;100687.13;;;20.35;44.50
70841;BME280;58465;51.534;9.934;2022-07-06T07:13:03;100674.25;;;20.22;43.85
70841;BME280;58465;51.534;9.934;2022-07-06T07:15:29;100683.44;;;20.54;43.73
70841;BME280;58465;51.534;9.934;2022-07-06T07:17:54;100672.41;;;20.22;43.18
70841;BME280;58465;51.534;9.934;2022-07-06T07:20:20;100692.06;;;20.27;43.36
70841;BME280;58465;51.534;9.934;2022-07-06T07:22:45;100692.81;;;20.29;43.01
70841;BME280;58465;51.534;9.934;2022-07-06T07:25:10;100689.69;;;19.85;43.90
70841;BME280;58465;51.534;9.934;2022-07-06T07:27:36;100681.06;;;19.60;44.31
70841;BME280;58465;51.534;9.934;2022-07-06T07:30:02;100686.00;;;19.69;43.79
70841;BME280;58465;51.534;9.934;2022-07-06T07:32:28;100681.16;;;19.76;43.73
70841;BME280;58465;51.534;9.934;2022-07-06T07:34:53;100695.47;;;19.60;43.63
70841;BME280;58465;51.534;9.934;2022-07-06T07:37:18;100691.53;;;19.85;43.48
70841;BME280;58465;51.534;9.934;2022-07-06T07:39:44;100691.75;;;19.80;43.51
70841;BME280;58465;51.534;9.934;2022-07-06T07:42:09;100691.44;;;19.69;41.73
70841;BME280;58465;51.534;9.934;2022-07-06T07:44:34;100699.56;;;19.69;40.51
70841;BME280;58465;51.534;9.934;2022-07-06T07:47:00;100683.09;;;19.55;40.56
70841;BME280;58465;51.534;9.934;2022-07-06T07:49:25;100694.19;;;19.50;41.42
70841;BME280;58465;51.534;9.934;2022-07-06T07:51:51;100691.91;;;19.60;41.07
70841;BME280;58465;51.534;9.934;2022-07-06T07:54:17;100690.25;;;19.75;41.05
70841;BME280;58465;51.534;9.934;2022-07-06T07:56:42;100690.84;;;19.44;42.17
70841;BME280;58465;51.534;9.934;2022-07-06T07:59:08;100697.88;;;19.29;42.55
70841;BME280;58465;51.534;9.934;2022-07-06T08:01:34;100686.72;;;19.73;41.84
70841;BME280;58465;51.534;9.934;2022-07-06T08:03:59;100694.22;;;20.38;40.31
70841;BME280;58465;51.534;9.934;2022-07-06T08:06:25;100692.59;;;21.01;39.22
70841;BME280;58465;51.534;9.934;2022-07-06T08:08:51;100683.28;;;21.05;38.18
70841;BME280;58465;51.534;9.934;2022-07-06T08:11:16;100677.22;;;21.18;38.17
70841;BME280;58465;51.534;9.934;2022-07-06T08:13:42;100685.09;;;20.73;37.77
70841;BME280;58465;51.534;9.934;2022-07-06T08:16:07;100681.41;;;20.74;37.33
70841;BME280;58465;51.534;9.934;2022-07-06T08:18:35;100689.78;;;21.03;35.63
70841;BME280;58465;51.534;9.934;2022-07-06T08:21:00;100697.31;;;20.98;35.52
70841;BME280;58465;51.534;9.934;2022-07-06T08:23:25;100692.44;;;20.71;35.15
70841;BME280;58465;51.534;9.934;2022-07-06T08:25:51;100688.31;;;20.47;35.70
70841;BME280;58465;51.534;9.934;2022-07-06T08:28:16;100686.84;;;20.06;36.75
70841;BME280;58465;51.534;9.934;2022-07-06T08:30:41;100700.34;;;20.24;36.99
70841;BME280;58465;51.534;9.934;2022-07-06T08:33:07;100673.69;;;20.32;37.25
70841;BME280;58465;51.534;9.934;2022-07-06T08:35:32;100695.63;;;20.11;37.15
70841;BME280;58465;51.534;9.934;2022-07-06T08:37:57;100693.97;;;20.08;37.20
70841;BME280;58465;51.534;9.934;2022-07-06T08:40:23;100692.44;;;20.20;37.58
70841;BME280;58465;51.534;9.934;2022-07-06T08:42:53;100693.50;;;20.17;38.21
70841;BME280;58465;51.534;9.934;2022-07-06T08:45:19;100686.03;;;20.04;38.46
70841;BME280;58465;51.534;9.934;2022-07-06T08:47:46;100689.66;;;20.38;37.75
70841;BME280;58465;51.534;9.934;2022-07-06T08:50:15;100701.81;;;20.82;37.05
70841;BME280;58465;51.534;9.934;2022-07-06T08:52:41;100691.00;;;21.46;35.65
70841;BME280;58465;51.534;9.934;2022-07-06T08:55:10;100684.56;;;21.78;34.43
70841;BME280;58465;51.534;9.934;2022-07-06T08:57:35;100679.09;;;21.94;33.79
70841;BME280;58465;51.534;9.934;2022-07-06T09:00:01;100683.22;;;22.01;33.97
70841;BME280;58465;51.534;9.934;2022-07-06T09:02:27;100677.75;;;22.17;33.39
70841;BME280;58465;51.534;9.934;2022-07-06T09:04:55;100675.38;;;22.41;32.87
70841;BME280;58465;51.534;9.934;2022-07-06T09:07:26;100668.50;;;22.05;32.58
70841;BME280;58465;51.534;9.934;2022-07-06T09:09:54;100678.41;;;22.06;33.09
70841;BME280;58465;51.534;9.934;2022-07-06T09:12:20;100662.81;;;21.78;33.49
70841;BME280;58465;51.534;9.934;2022-07-06T09:14:45;100673.78;;;21.77;33.47
70841;BME280;58465;51.534;9.934;2022-07-06T09:17:11;100685.13;;;21.38;34.07
70841;BME280;58465;51.534;9.934;2022-07-06T09:19:37;100683.38;;;21.21;34.62
70841;BME280;58465;51.534;9.934;2022-07-06T09:22:04;100688.47;;;21.10;34.36
70841;BME280;58465;51.534;9.934;2022-07-06T09:24:30;100690.19;;;20.95;34.95
70841;BME280;58465;51.534;9.934;2022-07-06T09:26:57;100692.03;;;21.28;34.75
70841;BME280;58465;51.534;9.934;2022-07-06T09:29:28;100693.19;;;21.55;34.52
70841;BME280;58465;51.534;9.934;2022-07-06T09:32:01;100706.13;;;21.34;34.94
70841;BME280;58465;51.534;9.934;2022-07-06T09:34:45;100686.25;;;21.50;35.23
70841;BME280;58465;51.534;9.934;2022-07-06T09:37:11;100703.66;;;21.14;35.98
70841;BME280;58465;51.534;9.934;2022-07-06T09:39:36;100696.03;;;20.72;37.22
70841;BME280;58465;51.534;9.934;2022-07-06T09:42:03;100698.75;;;20.88;37.34
70841;BME280;58465;51.534;9.934;2022-07-06T09:44:33;100710.19;;;20.94;37.48
70841;BME280;58465;51.534;9.934;2022-07-06T09:47:02;100698.72;;;21.22;37.07
70841;BME280;58465;51.534;9.934;2022-07-06T09:49:28;100694.03;;;21.87;35.98
70841;BME280;58465;51.534;9.934;2022-07-06T09:51:55;100701.91;;;22.07;35.66
70841;BME280;58465;51.534;9.934;2022-07-06T09:54:21;100692.72;;;21.63;36.04
70841;BME280;58465;51.534;9.934;2022-07-06T09:56:48;100701.09;;;21.11;37.16
70841;BME280;58465;51.534;9.934;2022-07-06T09:59:17;100701.41;;;20.89;37.52
70841;BME280;58465;51.534;9.934;2022-07-06T10:01:44;100707.16;;;21.16;37.24
70841;BME280;58465;51.534;9.934;2022-07-06T10:04:13;100713.44;;;21.01;35.47
70841;BME280;58465;51.534;9.934;2022-07-06T10:06:39;100703.22;;;20.73;35.75
70841;BME280;58465;51.534;9.934;2022-07-06T10:09:06;100716.50;;;20.95;35.07
70841;BME280;58465;51.534;9.934;2022-07-06T10:11:35;100711.25;;;21.40;33.65
70841;BME280;58465;51.534;9.934;2022-07-06T10:14:03;100705.72;;;21.42;33.87
70841;BME280;58465;51.534;9.934;2022-07-06T10:16:30;100698.09;;;21.80;33.84
70841;BME280;58465;51.534;9.934;2022-07-06T10:18:56;100705.03;;;22.45;33.50
70841;BME280;58465;51.534;9.934;2022-07-06T10:21:23;100700.69;;;22.57;33.28
70841;BME280;58465;51.534;9.934;2022-07-06T10:23:49;100693.78;;;22.21;34.07
70841;BME280;58465;51.534;9.934;2022-07-06T10:26:16;100691.53;;;22.14;34.29
70841;BME280;58465;51.534;9.934;2022-07-06T10:28:42;100698.16;;;22.54;33.44
70841;BME280;58465;51.534;9.934;2022-07-06T10:31:08;100691.22;;;22.92;32.25
70841;BME280;58465;51.534;9.934;2022-07-06T10:33:35;100695.75;;;23.63;31.38
70841;BME280;58465;51.534;9.934;2022-07-06T10:36:01;100688.91;;;23.70;30.74
70841;BME280;58465;51.534;9.934;2022-07-06T10:38:32;100693.75;;;23.24;31.33
70841;BME280;58465;51.534;9.934;2022-07-06T10:41:07;100702.06;;;22.64;32.81
70841;BME280;58465;51.534;9.934;2022-07-06T10:43:52;100703.72;;;22.23;34.03
70841;BME280;58465;51.534;9.934;2022-07-06T10:46:18;100711.31;;;22.02;34.72
70841;BME280;58465;51.534;9.934;2022-07-06T10:48:47;100688.66;;;22.17;34.13
70841;BME280;58465;51.534;9.934;2022-07-06T10:51:25;100704.66;;;22.37;34.31
70841;BME280;58465;51.534;9.934;2022-07-06T10:53:58;100709.81;;;23.00;33.12
70841;BME280;58465;51.534;9.934;2022-07-06T10:56:37;100698.06;;;22.55;33.86
70841;BME280;58465;51.534;9.934;2022-07-06T10:59:12;100698.31;;;23.09;31.98
70841;BME280;58465;51.534;9.934;2022-07-06T11:01:38;100685.78;;;22.92;32.60
70841;BME280;58465;51.534;9.934;2022-07-06T11:06:32;100698.97;;;23.41;32.05
70841;BME280;58465;51.534;9.934;2022-07-06T11:14:16;100683.16;;;23.46;30.38
70841;BME280;58465;51.534;9.934;2022-07-06T11:19:18;100680.81;;;23.68;30.42
70841;BME280;58465;51.534;9.934;2022-07-06T11:21:50;100679.03;;;23.82;29.64
70841;BME280;58465;51.534;9.934;2022-07-06T11:24:28;100678.47;;;23.21;29.71
70841;BME280;58465;51.534;9.934;2022-07-06T11:26:55;100680.78;;;23.27;30.42
70841;BME280;58465;51.534;9.934;2022-07-06T11:29:22;100681.84;;;23.80;29.56
70841;BME280;58465;51.534;9.934;2022-07-06T11:31:50;100683.13;;;24.01;29.18
70841;BME280;58465;51.534;9.934;2022-07-06T11:34:25;100681.91;;;23.93;27.87
70841;BME280;58465;51.534;9.934;2022-07-06T11:36:55;100669.91;;;23.68;27.88
70841;BME280;58465;51.534;9.934;2022-07-06T11:39:21;100685.19;;;23.98;27.54
70841;BME280;58465;51.534;9.934;2022-07-06T11:41:46;100683.34;;;24.38;26.82
70841;BME280;58465;51.534;9.934;2022-07-06T11:44:12;100680.00;;;24.60;26.82
70841;BME280;58465;51.534;9.934;2022-07-06T11:46:37;100669.31;;;24.69;26.66
70841;BME280;58465;51.534;9.934;2022-07-06T11:49:06;100672.78;;;24.59;26.72
70841;BME280;58465;51.534;9.934;2022-07-06T11:51:38;100676.38;;;24.72;26.72
70841;BME280;58465;51.534;9.934;2022-07-06T11:54:20;100669.16;;;25.22;25.69
70841;BME280;58465;51.534;9.934;2022-07-06T11:56:47;100665.53;;;25.34;25.91
70841;BME280;58465;51.534;9.934;2022-07-06T11:59:15;100659.19;;;25.57;25.81
70841;BME280;58465;51.534;9.934;2022-07-06T12:01:41;100663.50;;;25.85;25.28
70841;BME280;58465;51.534;9.934;2022-07-06T12:04:10;100662.94;;;26.74;24.60
70841;BME280;58465;51.534;9.934;2022-07-06T12:06:35;100647.97;;;26.67;24.11
70841;BME280;58465;51.534;9.934;2022-07-06T12:09:01;100649.94;;;25.83;24.39
70841;BME280;58465;51.534;9.934;2022-07-06T12:11:35;100657.50;;;26.04;24.60
70841;BME280;58465;51.534;9.934;2022-07-06T12:14:03;100645.84;;;26.13;24.63
70841;BME280;58465;51.534;9.934;2022-07-06T12:16:37;100633.06;;;27.26;23.52
70841;BME280;58465;51.534;9.934;2022-07-06T12:19:04;100648.38;;;26.84;23.67
70841;BME280;58465;51.534;9.934;2022-07-06T12:21:30;100640.31;;;27.82;21.25
70841;BME280;58465;51.534;9.934;2022-07-06T12:23:57;100636.50;;;28.67;20.32
70841;BME280;58465;51.534;9.934;2022-07-06T12:26:24;100643.09;;;27.70;22.07
70841;BME280;58465;51.534;9.934;2022-07-06T12:29:01;100632.88;;;27.50;20.60
70841;BME280;58465;51.534;9.934;2022-07-06T12:31:34;100642.88;;;26.84;21.92
70841;BME280;58465;51.534;9.934;2022-07-06T12:34:00;100634.69;;;27.29;21.76
70841;BME280;58465;51.534;9.934;2022-07-06T12:36:26;100630.03;;;26.74;22.32
70841;BME280;58465;51.534;9.934;2022-07-06T12:38:52;100651.16;;;26.03;22.75
70841;BME280;58465;51.534;9.934;2022-07-06T12:41:33;100631.59;;;24.74;24.41
70841;BME280;58465;51.534;9.934;2022-07-06T12:44:05;100648.63;;;24.65;24.59
70841;BME280;58465;51.534;9.934;2022-07-06T12:46:41;100651.91;;;24.58;25.02
70841;BME280;58465;51.534;9.934;2022-07-06T12:49:17;100642.88;;;24.70;24.95
70841;BME280;58465;51.534;9.934;2022-07-06T12:54:49;100651.47;;;24.64;25.43
70841;BME280;58465;51.534;9.934;2022-07-06T12:57:17;100638.59;;;24.66;25.56
70841;BME280;58465;51.534;9.934;2022-07-06T12:59:45;100630.50;;;24.39;26.12
70841;BME280;58465;51.534;9.934;2022-07-06T13:02:37;100648.16;;;25.22;25.17
70841;BME280;58465;51.534;9.934;2022-07-06T13:05:11;100629.75;;;25.73;24.63
70841;BME280;58465;51.534;9.934;2022-07-06T13:07:42;100629.09;;;25.94;24.36